createdAt,value
2023-04-17T00:02:10.830Z,100992.41
2023-04-17T00:04:41.008Z,100985.28
2023-04-17T00:07:08.199Z,100985.50
2023-04-17T00:09:35.363Z,100983.00
2023-04-17T00:12:02.478Z,100988.59
2023-04-17T00:14:29.631Z,100990.59
2023-04-17T00:16:56.679Z,100985.34
2023-04-17T00:19:23.812Z,100988.09
2023-04-17T00:21:50.802Z,100982.84
2023-04-17T00:24:17.831Z,100988.50
2023-04-17T00:26:44.748Z,100990.50
2023-04-17T00:29:12.045Z,100985.44
2023-04-17T00:31:39.320Z,100983.81
2023-04-17T00:34:06.656Z,100974.19
2023-04-17T00:36:33.720Z,100974.25
2023-04-17T00:39:01.336Z,100973.63
2023-04-17T00:41:28.333Z,100975.66
2023-04-17T00:43:55.300Z,100968.88
2023-04-17T00:46:22.372Z,100963.06
2023-04-17T00:48:49.847Z,100953.47
2023-04-17T00:51:17.206Z,100955.22
2023-04-17T00:53:44.271Z,100951.63
2023-04-17T00:56:11.881Z,100956.16
2023-04-17T00:58:40.505Z,100951.88
2023-04-17T01:01:07.563Z,100948.59
2023-04-17T01:03:35.601Z,100947.81
2023-04-17T01:06:03.753Z,100953.28
2023-04-17T01:08:42.319Z,100944.47
2023-04-17T01:11:12.767Z,100941.81
2023-04-17T01:13:52.231Z,100938.25
2023-04-17T01:16:19.392Z,100945.53
2023-04-17T01:18:49.920Z,100941.31
2023-04-17T01:21:17.916Z,100943.44
2023-04-17T01:23:51.727Z,100943.69
2023-04-17T01:26:21.095Z,100946.84
2023-04-17T01:28:56.637Z,100945.91
2023-04-17T01:31:26.313Z,100950.50
2023-04-17T01:33:54.324Z,100943.41
2023-04-17T01:36:22.248Z,100954.09
2023-04-17T01:38:49.501Z,100956.03
2023-04-17T01:41:16.626Z,100953.38
2023-04-17T01:43:46.980Z,100956.97
2023-04-17T01:46:14.555Z,100950.69
2023-04-17T01:48:41.795Z,100948.94
2023-04-17T01:51:09.055Z,100940.16
2023-04-17T01:53:37.997Z,100935.75
2023-04-17T01:56:05.330Z,100945.69
2023-04-17T01:58:32.421Z,100941.28
2023-04-17T02:01:00.594Z,100945.78
2023-04-17T02:03:28.195Z,100947.78
2023-04-17T02:05:55.684Z,100946.16
2023-04-17T02:08:22.773Z,100934.03
2023-04-17T02:10:50.104Z,100943.09
2023-04-17T02:13:17.136Z,100941.38
2023-04-17T02:15:44.366Z,100938.94
2023-04-17T02:18:13.328Z,100928.53
2023-04-17T02:20:40.567Z,100929.41
2023-04-17T02:23:07.999Z,100931.28
2023-04-17T02:25:35.364Z,100933.03
2023-04-17T02:28:04.030Z,100937.59
2023-04-17T02:30:31.122Z,100941.31
2023-04-17T02:32:59.203Z,100944.47
2023-04-17T02:35:30.089Z,100940.44
2023-04-17T02:37:57.877Z,100947.75
2023-04-17T02:40:24.960Z,100948.53
2023-04-17T02:43:00.779Z,100953.09
2023-04-17T02:45:29.018Z,100950.69
2023-04-17T02:47:56.656Z,100945.53
2023-04-17T02:50:24.510Z,100945.81
2023-04-17T02:53:14.256Z,100940.63
2023-04-17T02:55:41.445Z,100949.69
2023-04-17T02:58:08.750Z,100943.38
2023-04-17T03:00:36.092Z,100954.16
2023-04-17T03:03:03.473Z,100954.16
2023-04-17T03:05:30.760Z,100960.28
2023-04-17T03:08:00.198Z,100949.69
2023-04-17T03:10:31.736Z,100956.88
2023-04-17T03:12:59.134Z,100955.06
2023-04-17T03:15:27.078Z,100949.03
2023-04-17T03:17:54.109Z,100955.34
2023-04-17T03:20:21.504Z,100947.44
2023-04-17T03:22:48.494Z,100948.47
2023-04-17T03:25:15.746Z,100948.47
2023-04-17T03:27:52.893Z,100947.50
2023-04-17T03:30:22.618Z,100948.28
2023-04-17T03:32:51.921Z,100950.19
2023-04-17T03:35:18.944Z,100952.94
2023-04-17T03:37:46.106Z,100957.63
2023-04-17T03:40:13.912Z,100965.81
2023-04-17T03:42:43.935Z,100964.06
2023-04-17T03:45:11.271Z,100971.22
2023-04-17T03:47:38.882Z,100961.50
2023-04-17T03:50:07.152Z,100967.06
2023-04-17T03:52:41.197Z,100964.78
2023-04-17T03:55:09.969Z,100978.31
2023-04-17T03:57:37.092Z,100965.03
2023-04-17T04:00:10.569Z,100964.34
2023-04-17T04:02:50.381Z,100969.84
2023-04-17T04:05:22.765Z,100973.38
2023-04-17T04:07:50.010Z,100978.03
2023-04-17T04:10:24.296Z,100977.25
2023-04-17T04:12:51.208Z,100972.09
2023-04-17T04:15:18.486Z,100980.19
2023-04-17T04:17:49.570Z,100975.97
2023-04-17T04:20:16.759Z,100969.94
2023-04-17T04:22:44.751Z,100968.28
2023-04-17T04:25:12.428Z,100967.41
2023-04-17T04:28:01.702Z,100974.66
2023-04-17T04:30:30.603Z,100976.56
2023-04-17T04:33:08.438Z,100978.59
2023-04-17T04:35:38.495Z,100985.06
2023-04-17T04:38:06.196Z,100987.97
2023-04-17T04:40:38.442Z,100993.41
2023-04-17T04:43:06.886Z,100999.84
2023-04-17T04:45:41.211Z,100990.19
2023-04-17T04:48:08.235Z,101000.09
2023-04-17T04:50:35.880Z,100993.88
2023-04-17T04:53:02.981Z,100993.09
2023-04-17T04:55:41.697Z,101005.69
2023-04-17T04:58:09.716Z,101002.38
2023-04-17T05:00:38.381Z,101003.56
2023-04-17T05:03:06.700Z,101010.69
2023-04-17T05:05:33.848Z,101002.00
2023-04-17T05:08:02.957Z,100991.41
2023-04-17T05:10:33.734Z,101004.50
2023-04-17T05:13:04.130Z,101017.06
2023-04-17T05:15:32.370Z,101018.09
2023-04-17T05:18:00.315Z,101014.56
2023-04-17T05:20:29.228Z,101018.97
2023-04-17T05:22:58.620Z,101026.00
2023-04-17T05:25:25.894Z,101025.00
2023-04-17T05:27:54.931Z,101016.91
2023-04-17T05:30:23.472Z,101032.84
2023-04-17T05:33:04.509Z,101027.41
2023-04-17T05:35:43.457Z,101037.16
2023-04-17T05:38:10.669Z,101034.34
2023-04-17T05:40:37.757Z,101034.25
2023-04-17T05:43:10.111Z,101033.28
2023-04-17T05:45:38.471Z,101034.94
2023-04-17T05:48:08.940Z,101042.91
2023-04-17T05:50:37.479Z,101042.72
2023-04-17T05:53:06.486Z,101046.97
2023-04-17T05:55:38.398Z,101044.13
2023-04-17T05:58:23.225Z,101046.66
2023-04-17T06:00:54.220Z,101042.84
2023-04-17T06:03:23.666Z,101054.94
2023-04-17T06:05:58.496Z,101051.16
2023-04-17T06:08:28.242Z,101053.59
2023-04-17T06:10:56.323Z,101048.94
2023-04-17T06:13:24.541Z,101044.28
2023-04-17T06:15:52.552Z,101050.31
2023-04-17T06:18:19.668Z,101046.69
2023-04-17T06:20:46.986Z,101046.53
2023-04-17T06:23:13.998Z,101047.31
2023-04-17T06:25:45.210Z,101052.50
2023-04-17T06:28:13.025Z,101057.69
2023-04-17T06:30:40.201Z,101059.41
2023-04-17T06:33:08.296Z,101061.03
2023-04-17T06:35:37.768Z,101062.69
2023-04-17T06:38:17.357Z,101065.28
2023-04-17T06:40:44.914Z,101059.75
2023-04-17T06:43:12.538Z,101063.13
2023-04-17T06:45:42.429Z,101058.66
2023-04-17T06:48:10.313Z,101057.59
2023-04-17T06:50:41.835Z,101056.50
2023-04-17T06:53:09.063Z,101060.75
2023-04-17T06:58:05.062Z,101062.13
2023-04-17T07:00:32.279Z,101070.00
2023-04-17T07:02:59.760Z,101065.34
2023-04-17T07:05:27.346Z,101072.34
2023-04-17T07:07:55.410Z,101069.50
2023-04-17T07:10:22.493Z,101076.47
2023-04-17T07:12:49.514Z,101088.78
2023-04-17T07:15:16.780Z,101083.38
2023-04-17T07:17:43.916Z,101082.34
2023-04-17T07:20:11.747Z,101083.19
2023-04-17T07:22:39.154Z,101077.69
2023-04-17T07:25:07.524Z,101077.41
2023-04-17T07:27:35.704Z,101079.84
2023-04-17T07:30:02.887Z,101077.06
2023-04-17T07:32:30.163Z,101081.09
2023-04-17T07:34:57.512Z,101071.78
2023-04-17T07:37:24.576Z,101076.78
2023-04-17T07:39:52.838Z,101083.53
2023-04-17T07:42:19.936Z,101092.06
2023-04-17T07:44:48.611Z,101085.38
2023-04-17T07:47:15.901Z,101089.47
2023-04-17T07:49:46.548Z,101082.06
2023-04-17T07:52:15.464Z,101089.72
2023-04-17T07:54:42.544Z,101094.81
2023-04-17T07:57:09.758Z,101084.50
2023-04-17T07:59:37.185Z,101089.41
2023-04-17T08:02:04.414Z,101089.50
2023-04-17T08:04:33.260Z,101087.72
2023-04-17T08:07:00.560Z,101090.44
2023-04-17T08:09:28.932Z,101093.22
2023-04-17T08:11:58.036Z,101097.44
2023-04-17T08:14:25.612Z,101108.34
2023-04-17T08:16:52.908Z,101111.22
2023-04-17T08:19:20.053Z,101109.03
2023-04-17T08:21:51.881Z,101112.84
2023-04-17T08:24:19.977Z,101110.63
2023-04-17T08:26:47.915Z,101104.03
2023-04-17T08:29:15.337Z,101115.88
2023-04-17T08:31:46.394Z,101102.72
2023-04-17T08:34:15.585Z,101106.84
2023-04-17T08:36:43.351Z,101114.28
2023-04-17T08:39:12.423Z,101111.09
2023-04-17T08:41:48.190Z,101123.81
2023-04-17T08:44:21.290Z,101122.28
2023-04-17T08:46:49.995Z,101114.19
2023-04-17T08:49:17.604Z,101122.34
2023-04-17T08:51:44.710Z,101111.84
2023-04-17T08:54:11.792Z,101117.66
2023-04-17T08:56:38.953Z,101120.91
2023-04-17T08:59:06.720Z,101120.28
2023-04-17T09:01:34.946Z,101123.28
2023-04-17T09:04:02.814Z,101120.28
2023-04-17T09:06:50.299Z,101115.00
2023-04-17T09:09:17.899Z,101117.50
2023-04-17T09:11:45.247Z,101102.44
2023-04-17T09:14:30.900Z,101106.31
2023-04-17T09:16:58.060Z,101093.19
2023-04-17T09:19:25.329Z,101104.56
2023-04-17T09:21:54.827Z,101102.56
2023-04-17T09:24:35.765Z,101110.72
2023-04-17T09:27:24.440Z,101098.25
2023-04-17T09:30:06.079Z,101105.47
2023-04-17T09:32:34.468Z,101104.47
2023-04-17T09:35:04.753Z,101101.56
2023-04-17T09:37:50.565Z,101102.22
2023-04-17T09:40:20.639Z,101104.78
2023-04-17T09:43:02.414Z,101102.66
2023-04-17T09:45:40.163Z,101108.69
2023-04-17T09:48:13.770Z,101108.69
2023-04-17T09:50:41.224Z,101113.72
2023-04-17T09:53:09.094Z,101118.78
2023-04-17T09:55:38.157Z,101112.97
2023-04-17T09:58:08.076Z,101119.63
2023-04-17T10:00:36.811Z,101107.34
2023-04-17T10:03:05.268Z,101104.06
2023-04-17T10:05:33.169Z,101109.00
2023-04-17T10:08:01.107Z,101102.31
2023-04-17T10:10:33.677Z,101103.69
2023-04-17T10:13:05.547Z,101107.00
2023-04-17T10:15:33.934Z,101101.28
2023-04-17T10:18:30.266Z,101100.09
2023-04-17T10:20:57.716Z,101101.56
2023-04-17T10:23:35.268Z,101110.28
2023-04-17T10:26:29.768Z,101105.78
2023-04-17T10:28:58.085Z,101107.69
2023-04-17T10:32:10.050Z,101109.81
2023-04-17T10:34:39.301Z,101107.75
2023-04-17T10:37:17.211Z,101103.13
2023-04-17T10:39:51.641Z,101101.16
2023-04-17T10:42:21.627Z,101107.19
2023-04-17T10:44:50.344Z,101098.88
2023-04-17T10:47:22.677Z,101098.75
2023-04-17T10:50:00.179Z,101096.91
2023-04-17T10:52:34.592Z,101100.28
2023-04-17T10:55:16.393Z,101091.84
2023-04-17T10:58:05.127Z,101086.84
2023-04-17T11:00:36.919Z,101087.69
2023-04-17T11:03:06.641Z,101084.88
2023-04-17T11:05:35.898Z,101087.09
2023-04-17T11:08:03.616Z,101084.91
2023-04-17T11:10:36.535Z,101079.28
2023-04-17T11:13:03.913Z,101076.44
2023-04-17T11:15:36.572Z,101087.13
2023-04-17T11:18:04.387Z,101077.19
2023-04-17T11:20:33.819Z,101075.88
2023-04-17T11:23:02.685Z,101076.59
2023-04-17T11:25:33.728Z,101068.78
2023-04-17T11:28:06.850Z,101071.94
2023-04-17T11:30:37.085Z,101068.78
2023-04-17T11:33:07.898Z,101067.53
2023-04-17T11:35:38.518Z,101068.06
2023-04-17T11:38:49.517Z,101069.53
2023-04-17T11:41:17.310Z,101059.34
2023-04-17T11:43:44.577Z,101062.53
2023-04-17T11:46:12.317Z,101057.88
2023-04-17T11:48:40.444Z,101062.53
2023-04-17T11:51:08.242Z,101062.66
2023-04-17T11:53:36.582Z,101065.97
2023-04-17T11:56:18.405Z,101056.78
2023-04-17T11:58:54.014Z,101063.66
2023-04-17T12:01:25.089Z,101065.00
2023-04-17T12:03:58.080Z,101060.09
2023-04-17T12:06:37.238Z,101060.22
2023-04-17T12:09:07.239Z,101054.22
2023-04-17T12:11:35.951Z,101055.63
2023-04-17T12:14:05.641Z,101052.56
2023-04-17T12:16:32.723Z,101061.00
2023-04-17T12:19:00.041Z,101059.88
2023-04-17T12:21:27.137Z,101061.00
2023-04-17T12:23:54.358Z,101056.31
2023-04-17T12:26:22.081Z,101058.78
2023-04-17T12:28:49.393Z,101051.41
2023-04-17T12:31:16.687Z,101049.31
2023-04-17T12:33:43.644Z,101039.94
2023-04-17T12:36:32.808Z,101041.03
2023-04-17T12:39:00.624Z,101035.47
2023-04-17T12:41:27.772Z,101032.56
2023-04-17T12:43:58.730Z,101025.53
2023-04-17T12:46:31.695Z,101035.13
2023-04-17T12:49:04.130Z,101034.25
2023-04-17T12:51:32.381Z,101027.59
2023-04-17T12:53:59.428Z,101027.38
2023-04-17T12:56:27.356Z,101029.75
2023-04-17T12:58:54.973Z,101031.69
2023-04-17T13:01:22.292Z,101019.31
2023-04-17T13:03:59.104Z,101018.22
2023-04-17T13:06:28.236Z,101010.09
2023-04-17T13:08:55.637Z,101017.47
2023-04-17T13:11:22.824Z,101016.78
2023-04-17T13:13:49.930Z,101017.03
2023-04-17T13:16:17.248Z,101017.31
2023-04-17T13:18:44.491Z,101007.34
2023-04-17T13:21:11.645Z,101005.31
2023-04-17T13:23:38.626Z,101006.03
2023-04-17T13:26:05.777Z,101008.03
2023-04-17T13:28:32.927Z,101003.31
2023-04-17T13:31:00.167Z,101004.19
2023-04-17T13:33:27.335Z,101002.19
2023-04-17T13:35:54.442Z,100994.56
2023-04-17T13:38:23.135Z,100992.44
2023-04-17T13:40:51.156Z,100992.44
2023-04-17T13:43:18.948Z,100995.28
2023-04-17T13:45:46.314Z,100991.19
2023-04-17T13:48:13.405Z,100987.66
2023-04-17T13:50:41.626Z,100987.13
2023-04-17T13:53:11.007Z,100987.50
2023-04-17T13:55:38.622Z,100996.31
2023-04-17T13:58:06.579Z,100993.16
2023-04-17T14:00:33.660Z,100992.47
2023-04-17T14:03:01.141Z,100989.59
2023-04-17T14:05:28.854Z,100994.59
2023-04-17T14:07:57.525Z,100986.31
2023-04-17T14:10:24.835Z,100996.03
2023-04-17T14:12:52.491Z,100984.91
2023-04-17T14:15:19.432Z,100974.41
2023-04-17T14:17:46.621Z,100981.84
2023-04-17T14:20:16.714Z,100978.03
2023-04-17T14:22:43.914Z,100979.22
2023-04-17T14:25:11.252Z,100970.69
2023-04-17T14:27:38.764Z,100978.22
2023-04-17T14:30:07.993Z,100968.56
2023-04-17T14:32:35.608Z,100963.53
2023-04-17T14:35:03.331Z,100964.84
2023-04-17T14:37:30.942Z,100964.69
2023-04-17T14:39:58.300Z,100957.09
2023-04-17T14:42:25.502Z,100957.97
2023-04-17T14:44:52.506Z,100952.00
2023-04-17T14:47:19.778Z,100944.16
2023-04-17T14:49:46.811Z,100950.69
2023-04-17T14:52:13.884Z,100958.09
2023-04-17T14:54:41.008Z,100956.41
2023-04-17T14:57:08.685Z,100945.97
2023-04-17T14:59:36.180Z,100948.13
2023-04-17T15:02:07.259Z,100945.41
2023-04-17T15:04:34.789Z,100943.72
2023-04-17T15:07:03.309Z,100947.72
2023-04-17T15:09:30.529Z,100947.44
2023-04-17T15:11:57.890Z,100946.28
2023-04-17T15:14:25.937Z,100947.13
2023-04-17T15:16:54.258Z,100943.72
2023-04-17T15:19:21.462Z,100952.97
2023-04-17T15:21:48.557Z,100944.84
2023-04-17T15:24:15.602Z,100946.84
2023-04-17T15:26:45.010Z,100947.97
2023-04-17T15:29:12.839Z,100944.81
2023-04-17T15:31:40.435Z,100952.09
2023-04-17T15:34:07.719Z,100946.84
2023-04-17T15:36:34.755Z,100946.84
2023-04-17T15:39:02.975Z,100951.09
2023-04-17T15:41:30.813Z,100951.25
2023-04-17T15:43:57.894Z,100946.69
2023-04-17T15:46:25.013Z,100948.53
2023-04-17T15:49:05.013Z,100949.81
2023-04-17T15:51:35.762Z,100940.69
2023-04-17T15:54:03.091Z,100942.66
2023-04-17T15:56:30.221Z,100940.84
2023-04-17T15:58:57.276Z,100947.22
2023-04-17T16:01:25.319Z,100941.81
2023-04-17T16:03:53.182Z,100932.41
2023-04-17T16:06:20.685Z,100941.13
2023-04-17T16:08:48.431Z,100936.28
2023-04-17T16:11:15.666Z,100932.44
2023-04-17T16:13:42.696Z,100932.56
2023-04-17T16:16:10.810Z,100937.13
2023-04-17T16:18:37.824Z,100932.16
2023-04-17T16:21:06.260Z,100936.00
2023-04-17T16:23:33.569Z,100936.34
2023-04-17T16:26:00.874Z,100934.81
2023-04-17T16:28:27.904Z,100939.34
2023-04-17T16:30:54.977Z,100927.94
2023-04-17T16:33:22.106Z,100941.91
2023-04-17T16:35:49.178Z,100935.06
2023-04-17T16:38:16.565Z,100930.88
2023-04-17T16:40:43.994Z,100932.16
2023-04-17T16:43:11.172Z,100933.28
2023-04-17T16:45:38.325Z,100928.16
2023-04-17T16:48:05.787Z,100928.44
2023-04-17T16:50:33.661Z,100935.97
2023-04-17T16:53:00.703Z,100926.56
2023-04-17T16:55:27.787Z,100926.84
2023-04-17T16:57:55.809Z,100923.56
2023-04-17T17:00:23.202Z,100925.81
2023-04-17T17:02:50.566Z,100928.78
2023-04-17T17:05:18.807Z,100927.34
2023-04-17T17:07:46.554Z,100923.06
2023-04-17T17:10:14.836Z,100929.59
2023-04-17T17:12:42.127Z,100931.69
2023-04-17T17:15:09.779Z,100933.81
2023-04-17T17:17:37.215Z,100938.50
2023-04-17T17:20:06.020Z,100938.75
2023-04-17T17:22:33.284Z,100942.72
2023-04-17T17:25:00.697Z,100943.00
2023-04-17T17:27:28.265Z,100933.41
2023-04-17T17:29:57.799Z,100932.69
2023-04-17T17:32:26.389Z,100943.75
2023-04-17T17:34:53.614Z,100939.34
2023-04-17T17:37:20.744Z,100936.91
2023-04-17T17:39:49.054Z,100944.59
2023-04-17T17:42:16.932Z,100944.84
2023-04-17T17:44:44.304Z,100950.50
2023-04-17T17:47:11.392Z,100944.38
2023-04-17T17:49:38.494Z,100942.94
2023-04-17T17:52:05.784Z,100953.00
2023-04-17T17:54:37.865Z,100947.84
2023-04-17T17:57:06.717Z,100949.84
2023-04-17T17:59:34.279Z,100951.81
2023-04-17T18:02:02.190Z,100944.81
2023-04-17T18:04:29.815Z,100948.78
2023-04-17T18:06:57.093Z,100946.34
2023-04-17T18:09:24.667Z,100953.00
2023-04-17T18:11:51.941Z,100951.50
2023-04-17T18:14:19.099Z,100949.22
2023-04-17T18:16:47.086Z,100948.72
2023-04-17T18:19:14.298Z,100954.66
2023-04-17T18:21:41.373Z,100957.03
2023-04-17T18:24:08.636Z,100962.34
2023-04-17T18:26:35.767Z,100962.84
2023-04-17T18:29:02.846Z,100963.16
2023-04-17T18:31:30.081Z,100959.25
2023-04-17T18:34:01.997Z,100968.72
2023-04-17T18:36:29.774Z,100968.34
2023-04-17T18:38:56.861Z,100969.97
2023-04-17T18:41:26.648Z,100975.88
2023-04-17T18:43:53.712Z,100979.78
2023-04-17T18:46:22.053Z,100976.47
2023-04-17T18:48:49.133Z,100972.31
2023-04-17T18:51:17.501Z,100979.66
2023-04-17T18:53:44.680Z,100979.19
2023-04-17T18:56:13.737Z,100975.88
2023-04-17T18:58:41.213Z,100977.97
2023-04-17T19:01:10.397Z,100983.59
2023-04-17T19:03:39.078Z,100985.78
2023-04-17T19:06:06.921Z,100984.31
2023-04-17T19:08:35.234Z,100981.00
2023-04-17T19:11:03.466Z,100990.94
2023-04-17T19:13:30.660Z,100985.78
2023-04-17T19:15:57.992Z,100999.38
2023-04-17T19:18:25.226Z,100997.66
2023-04-17T19:20:52.307Z,101000.44
2023-04-17T19:23:19.360Z,101002.28
2023-04-17T19:25:56.652Z,101002.44
2023-04-17T19:28:44.631Z,101000.81
2023-04-17T19:31:22.303Z,101004.75
2023-04-17T19:33:49.433Z,101005.84
2023-04-17T19:36:16.455Z,101001.63
2023-04-17T19:38:43.955Z,101005.53
2023-04-17T19:41:17.672Z,101007.50
2023-04-17T19:43:46.309Z,101006.97
2023-04-17T19:46:14.215Z,101001.81
2023-04-17T19:48:43.640Z,101001.09
2023-04-17T19:51:12.371Z,101005.00
2023-04-17T19:53:41.816Z,100998.03
2023-04-17T19:56:10.771Z,101001.81
2023-04-17T19:58:39.734Z,101008.41
2023-04-17T20:01:06.944Z,101001.66
2023-04-17T20:03:35.793Z,101006.66
2023-04-17T20:06:04.067Z,101002.56
2023-04-17T20:08:31.945Z,101001.94
2023-04-17T20:10:59.746Z,101000.56
2023-04-17T20:13:28.155Z,101000.78
2023-04-17T20:15:55.440Z,101000.94
2023-04-17T20:18:22.640Z,101005.56
2023-04-17T20:20:49.815Z,101003.84
2023-04-17T20:23:16.827Z,101008.47
2023-04-17T20:25:44.164Z,101001.50
2023-04-17T20:28:11.640Z,101004.44
2023-04-17T20:30:39.356Z,101007.22
2023-04-17T20:33:06.580Z,101011.00
2023-04-17T20:35:33.742Z,100994.13
2023-04-17T20:38:00.901Z,101003.16
2023-04-17T20:40:28.041Z,100991.66
2023-04-17T20:42:55.705Z,100991.66
2023-04-17T20:45:22.836Z,100997.13
2023-04-17T20:47:55.930Z,100991.88
2023-04-17T20:50:24.698Z,100989.41
2023-04-17T20:52:51.754Z,101000.19
2023-04-17T20:55:20.010Z,100994.78
2023-04-17T20:57:47.852Z,100996.72
2023-04-17T21:00:16.188Z,101000.41
2023-04-17T21:02:44.031Z,100998.69
2023-04-17T21:05:11.689Z,100997.09
2023-04-17T21:07:38.957Z,101000.63
2023-04-17T21:10:06.886Z,100998.69
2023-04-17T21:12:35.362Z,100996.94
2023-04-17T21:15:02.838Z,101002.34
2023-04-17T21:17:31.241Z,100999.66
2023-04-17T21:19:58.480Z,101004.06
2023-04-17T21:22:25.491Z,101003.09
2023-04-17T21:24:52.666Z,101003.94
2023-04-17T21:27:19.743Z,101002.47
2023-04-17T21:29:46.799Z,100999.00
2023-04-17T21:32:13.927Z,101004.53
2023-04-17T21:34:41.439Z,101001.94
2023-04-17T21:37:08.487Z,101002.28
2023-04-17T21:39:36.178Z,100998.97
2023-04-17T21:42:03.417Z,100990.31
2023-04-17T21:44:30.454Z,100992.28
2023-04-17T21:46:57.589Z,100986.00
2023-04-17T21:49:24.900Z,100988.84
2023-04-17T21:51:51.881Z,100993.44
2023-04-17T21:54:18.950Z,100990.97
2023-04-17T21:56:46.071Z,100989.41
2023-04-17T21:59:13.198Z,100994.00
2023-04-17T22:01:41.541Z,100994.13
2023-04-17T22:04:09.014Z,100998.75
2023-04-17T22:06:37.280Z,100995.94
2023-04-17T22:09:08.753Z,101002.19
2023-04-17T22:11:38.518Z,100998.63
2023-04-17T22:14:05.666Z,100996.94
2023-04-17T22:16:32.801Z,100999.63
2023-04-17T22:19:00.012Z,100999.63
2023-04-17T22:21:27.199Z,100998.13
2023-04-17T22:23:54.319Z,101001.03
2023-04-17T22:26:21.831Z,100993.19
2023-04-17T22:28:49.236Z,100991.69
2023-04-17T22:31:16.619Z,100986.53
2023-04-17T22:33:44.251Z,100991.91
2023-04-17T22:36:11.341Z,100993.72
2023-04-17T22:38:38.306Z,100990.38
2023-04-17T22:41:05.516Z,100994.06
2023-04-17T22:43:32.681Z,100997.81
2023-04-17T22:45:59.796Z,100996.19
2023-04-17T22:48:27.893Z,100998.88
2023-04-17T22:50:55.844Z,101005.16
2023-04-17T22:53:23.094Z,101006.94
2023-04-17T22:56:03.703Z,101009.63
2023-04-17T22:58:33.105Z,101008.69
2023-04-17T23:01:00.681Z,101008.47
2023-04-17T23:03:28.697Z,101016.41
2023-04-17T23:05:56.986Z,101019.00
2023-04-17T23:08:24.899Z,101013.50
2023-04-17T23:11:03.409Z,101008.34
2023-04-17T23:13:31.701Z,101013.00
2023-04-17T23:15:58.752Z,101011.25
2023-04-17T23:18:25.927Z,101006.00
2023-04-17T23:20:52.941Z,101012.22
2023-04-17T23:23:20.225Z,101007.84
2023-04-17T23:25:47.376Z,101006.72
2023-04-17T23:28:14.801Z,101008.47
2023-04-17T23:30:42.175Z,101003.09
2023-04-17T23:33:09.856Z,101008.47
2023-04-17T23:35:36.930Z,101005.03
2023-04-17T23:38:04.121Z,101015.00
2023-04-17T23:40:32.839Z,101007.06
2023-04-17T23:43:00.303Z,101017.94
2023-04-17T23:45:27.504Z,101019.88
2023-04-17T23:47:54.788Z,101010.09
2023-04-17T23:50:22.024Z,101008.25
2023-04-17T23:52:49.197Z,101018.91
2023-04-17T23:55:16.266Z,101020.72
2023-04-17T23:57:43.691Z,101014.59
